createdAt,value
2023-05-03T00:00:13.159Z,47.11
2023-05-03T00:01:15.637Z,47.39
2023-05-03T00:02:19.019Z,47.44
2023-05-03T00:03:23.304Z,47.49
2023-05-03T00:04:25.961Z,47.37
2023-05-03T00:05:28.261Z,47.19
2023-05-03T00:06:30.988Z,47.15
2023-05-03T00:07:33.686Z,47.13
2023-05-03T00:08:35.913Z,47.18
2023-05-03T00:09:38.147Z,47.27
2023-05-03T00:10:40.473Z,47.35
2023-05-03T00:11:43.031Z,47.34
2023-05-03T00:12:45.567Z,47.35
2023-05-03T00:13:47.879Z,47.25
2023-05-03T00:14:52.254Z,47.50
2023-05-03T00:15:54.922Z,47.46
2023-05-03T00:16:58.479Z,47.41
2023-05-03T00:18:01.234Z,47.54
2023-05-03T00:19:04.036Z,47.71
2023-05-03T00:20:08.678Z,47.83
2023-05-03T00:21:10.971Z,47.78
2023-05-03T00:22:13.676Z,47.70
2023-05-03T00:23:16.184Z,47.54
2023-05-03T00:24:18.494Z,47.53
2023-05-03T00:25:20.709Z,47.84
2023-05-03T00:26:23.127Z,48.01
2023-05-03T00:27:25.658Z,47.90
2023-05-03T00:28:27.986Z,47.88
2023-05-03T00:29:30.415Z,47.92
2023-05-03T00:30:33.497Z,47.95
2023-05-03T00:31:36.082Z,48.15
2023-05-03T00:32:38.685Z,48.22
2023-05-03T00:33:41.168Z,48.20
2023-05-03T00:34:44.147Z,48.25
2023-05-03T00:35:46.557Z,48.12
2023-05-03T00:36:48.995Z,48.22
2023-05-03T00:37:51.331Z,48.26
2023-05-03T00:38:54.450Z,48.26
2023-05-03T00:39:56.721Z,48.37
2023-05-03T00:41:01.520Z,48.86
2023-05-03T00:42:04.059Z,48.86
2023-05-03T00:43:06.872Z,48.78
2023-05-03T00:44:09.732Z,49.02
2023-05-03T00:45:12.355Z,48.86
2023-05-03T00:46:17.464Z,48.77
2023-05-03T00:47:19.671Z,48.83
2023-05-03T00:48:23.009Z,48.95
2023-05-03T00:49:25.399Z,48.94
2023-05-03T00:50:28.031Z,49.00
2023-05-03T00:51:30.569Z,48.99
2023-05-03T00:52:34.400Z,48.99
2023-05-03T00:53:37.683Z,49.32
2023-05-03T00:54:43.567Z,49.37
2023-05-03T00:55:46.035Z,49.39
2023-05-03T00:56:52.217Z,49.54
2023-05-03T00:57:53.133Z,49.54
2023-05-03T00:58:55.355Z,49.57
2023-05-03T00:59:58.553Z,49.73
2023-05-03T01:01:02.646Z,50.01
2023-05-03T01:02:05.295Z,50.02
2023-05-03T01:03:07.878Z,49.96
2023-05-03T01:04:10.297Z,49.83
2023-05-03T01:05:13.048Z,49.98
2023-05-03T01:06:19.315Z,50.07
2023-05-03T01:07:28.437Z,50.01
2023-05-03T01:10:06.355Z,50.21
2023-05-03T01:11:13.546Z,49.99
2023-05-03T01:12:22.383Z,50.31
2023-05-03T01:13:28.112Z,50.18
2023-05-03T01:14:42.995Z,50.21
2023-05-03T01:15:48.706Z,50.15
2023-05-03T01:16:56.535Z,50.29
2023-05-03T01:18:08.115Z,50.48
2023-05-03T01:19:26.196Z,50.44
2023-05-03T01:20:32.254Z,50.48
2023-05-03T01:21:37.264Z,50.43
2023-05-03T01:22:52.477Z,50.51
2023-05-03T01:23:58.276Z,50.63
2023-05-03T01:25:09.697Z,50.95
2023-05-03T01:26:23.402Z,51.36
2023-05-03T01:27:25.762Z,51.34
2023-05-03T01:28:28.100Z,51.33
2023-05-03T01:29:30.515Z,51.27
2023-05-03T01:30:34.517Z,51.23
2023-05-03T01:33:07.473Z,51.36
2023-05-03T01:34:41.124Z,51.23
2023-05-03T01:36:08.343Z,51.09
2023-05-03T01:37:12.578Z,50.97
2023-05-03T01:38:17.124Z,51.04
2023-05-03T01:39:25.937Z,51.04
2023-05-03T01:40:30.875Z,51.24
2023-05-03T01:41:36.350Z,51.28
2023-05-03T01:42:39.725Z,51.59
2023-05-03T01:43:44.007Z,51.79
2023-05-03T01:44:47.877Z,51.76
2023-05-03T01:45:50.540Z,51.93
2023-05-03T01:46:53.364Z,51.99
2023-05-03T01:47:56.608Z,52.09
2023-05-03T01:48:59.087Z,52.02
2023-05-03T01:50:01.630Z,52.02
2023-05-03T01:51:04.248Z,52.12
2023-05-03T01:52:07.662Z,52.22
2023-05-03T01:53:09.941Z,52.18
2023-05-03T01:54:12.401Z,52.40
2023-05-03T01:55:15.536Z,52.53
2023-05-03T01:56:18.056Z,52.37
2023-05-03T01:57:20.370Z,52.18
2023-05-03T01:58:22.678Z,52.31
2023-05-03T01:59:25.096Z,52.14
2023-05-03T02:00:27.749Z,52.09
2023-05-03T02:01:30.216Z,52.26
2023-05-03T02:02:32.564Z,52.23
2023-05-03T02:03:34.940Z,52.38
2023-05-03T02:04:37.695Z,52.26
2023-05-03T02:05:41.978Z,52.33
2023-05-03T02:06:44.541Z,52.16
2023-05-03T02:07:47.150Z,52.41
2023-05-03T02:08:49.572Z,52.50
2023-05-03T02:09:51.880Z,52.56
2023-05-03T02:10:54.426Z,52.76
2023-05-03T02:11:56.520Z,52.80
2023-05-03T02:12:58.836Z,52.73
2023-05-03T02:14:01.239Z,52.69
2023-05-03T02:15:04.457Z,52.77
2023-05-03T02:16:07.022Z,52.87
2023-05-03T02:17:09.830Z,53.03
2023-05-03T02:18:13.890Z,52.91
2023-05-03T02:19:16.696Z,52.79
2023-05-03T02:20:19.451Z,52.78
2023-05-03T02:21:21.777Z,52.98
2023-05-03T02:22:25.791Z,53.03
2023-05-03T02:23:30.076Z,53.23
2023-05-03T02:24:34.286Z,53.15
2023-05-03T02:25:36.656Z,53.14
2023-05-03T02:26:39.083Z,52.86
2023-05-03T02:27:41.328Z,53.07
2023-05-03T02:28:43.728Z,52.93
2023-05-03T02:29:46.150Z,53.07
2023-05-03T02:30:49.291Z,53.10
2023-05-03T02:31:52.583Z,53.02
2023-05-03T02:32:55.316Z,53.29
2023-05-03T02:33:57.961Z,53.57
2023-05-03T02:35:01.298Z,53.76
2023-05-03T02:36:04.298Z,53.99
2023-05-03T02:37:07.532Z,54.09
2023-05-03T02:38:10.119Z,54.03
2023-05-03T02:39:12.493Z,54.15
2023-05-03T02:40:15.825Z,54.22
2023-05-03T02:41:18.469Z,54.06
2023-05-03T02:42:22.173Z,54.26
2023-05-03T02:43:25.152Z,54.20
2023-05-03T02:44:28.667Z,54.19
2023-05-03T02:45:31.050Z,54.60
2023-05-03T02:46:33.518Z,54.22
2023-05-03T02:47:36.081Z,54.37
2023-05-03T02:48:39.245Z,54.60
2023-05-03T02:49:41.497Z,54.61
2023-05-03T02:50:43.837Z,54.68
2023-05-03T02:51:46.434Z,54.72
2023-05-03T02:52:48.649Z,54.70
2023-05-03T02:53:50.994Z,54.73
2023-05-03T02:54:54.069Z,54.79
2023-05-03T02:55:56.841Z,54.78
2023-05-03T02:56:59.597Z,54.90
2023-05-03T02:58:02.023Z,54.96
2023-05-03T02:59:04.752Z,54.99
2023-05-03T03:00:10.922Z,54.91
2023-05-03T03:01:13.852Z,54.95
2023-05-03T03:02:16.614Z,55.01
2023-05-03T03:03:19.929Z,55.25
2023-05-03T03:04:22.457Z,55.25
2023-05-03T03:05:26.449Z,55.18
2023-05-03T03:06:29.030Z,55.18
2023-05-03T03:07:31.950Z,55.09
2023-05-03T03:08:35.305Z,55.14
2023-05-03T03:09:37.908Z,55.24
2023-05-03T03:10:40.623Z,55.22
2023-05-03T03:11:44.045Z,55.30
2023-05-03T03:12:46.735Z,55.47
2023-05-03T03:13:51.946Z,55.48
2023-05-03T03:14:55.993Z,55.47
2023-05-03T03:15:58.851Z,55.70
2023-05-03T03:17:04.401Z,55.46
2023-05-03T03:18:07.709Z,55.57
2023-05-03T03:19:11.782Z,55.47
2023-05-03T03:20:15.397Z,55.37
2023-05-03T03:21:19.830Z,55.65
2023-05-03T03:22:22.477Z,55.50
2023-05-03T03:23:24.805Z,55.51
2023-05-03T03:24:27.134Z,55.24
2023-05-03T03:25:29.775Z,55.15
2023-05-03T03:26:32.640Z,55.33
2023-05-03T03:27:37.543Z,55.61
2023-05-03T03:28:40.366Z,55.48
2023-05-03T03:29:43.608Z,55.60
2023-05-03T03:30:47.926Z,55.79
2023-05-03T03:31:52.894Z,55.55
2023-05-03T03:32:55.845Z,55.60
2023-05-03T03:34:00.137Z,55.82
2023-05-03T03:35:02.773Z,55.98
2023-05-03T03:36:09.450Z,55.89
2023-05-03T03:37:12.052Z,55.93
2023-05-03T03:38:15.610Z,55.75
2023-05-03T03:39:20.796Z,55.81
2023-05-03T03:40:24.226Z,56.02
2023-05-03T03:41:27.033Z,56.01
2023-05-03T03:42:31.445Z,56.41
2023-05-03T03:43:34.269Z,56.22
2023-05-03T03:44:38.120Z,56.26
2023-05-03T03:45:41.776Z,56.36
2023-05-03T03:46:44.730Z,56.37
2023-05-03T03:47:47.329Z,56.25
2023-05-03T03:48:50.057Z,56.35
2023-05-03T03:49:52.481Z,56.53
2023-05-03T03:50:55.764Z,56.38
2023-05-03T03:51:58.656Z,56.42
2023-05-03T03:53:01.098Z,56.40
2023-05-03T03:54:04.870Z,56.42
2023-05-03T03:55:08.182Z,56.58
2023-05-03T03:56:11.492Z,56.70
2023-05-03T03:57:13.924Z,56.70
2023-05-03T03:58:16.345Z,56.77
2023-05-03T03:59:19.892Z,56.86
2023-05-03T04:00:24.018Z,56.73
2023-05-03T04:01:27.568Z,56.63
2023-05-03T04:02:30.700Z,56.66
2023-05-03T04:03:34.326Z,56.88
2023-05-03T04:04:37.012Z,56.83
2023-05-03T04:05:39.326Z,56.83
2023-05-03T04:06:43.216Z,56.89
2023-05-03T04:07:47.201Z,56.83
2023-05-03T04:08:50.077Z,56.85
2023-05-03T04:09:52.805Z,56.75
2023-05-03T04:10:55.427Z,56.75
2023-05-03T04:11:57.861Z,56.77
2023-05-03T04:13:00.899Z,56.82
2023-05-03T04:14:04.064Z,56.83
2023-05-03T04:15:08.250Z,56.84
2023-05-03T04:16:11.468Z,56.92
2023-05-03T04:17:15.033Z,56.97
2023-05-03T04:18:17.610Z,56.78
2023-05-03T04:19:22.076Z,56.68
2023-05-03T04:20:24.366Z,56.62
2023-05-03T04:21:29.967Z,56.77
2023-05-03T04:22:32.700Z,56.79
2023-05-03T04:23:35.140Z,58.34
2023-05-03T04:24:40.110Z,58.34
2023-05-03T04:25:45.924Z,60.02
2023-05-03T04:26:50.851Z,59.20
2023-05-03T04:27:55.121Z,62.72
2023-05-03T04:28:58.110Z,59.74
2023-05-03T04:30:01.370Z,57.14
2023-05-03T04:31:05.926Z,61.07
2023-05-03T04:32:09.329Z,55.33
2023-05-03T04:33:13.161Z,55.62
2023-05-03T04:34:16.357Z,58.34
2023-05-03T04:35:20.679Z,55.40
2023-05-03T04:36:25.337Z,56.78
2023-05-03T04:37:28.800Z,55.59
2023-05-03T04:38:31.901Z,55.45
2023-05-03T04:39:38.304Z,57.64
2023-05-03T04:40:41.531Z,58.42
2023-05-03T04:41:47.208Z,56.87
2023-05-03T04:42:50.946Z,54.64
2023-05-03T04:43:53.890Z,55.13
2023-05-03T04:45:00.016Z,54.60
2023-05-03T04:46:05.613Z,56.84
2023-05-03T04:47:08.463Z,55.50
2023-05-03T04:48:12.054Z,56.29
2023-05-03T04:49:16.080Z,58.31
2023-05-03T04:50:19.073Z,55.44
2023-05-03T04:51:23.501Z,55.84
2023-05-03T04:52:27.084Z,54.47
2023-05-03T04:53:32.703Z,55.28
2023-05-03T04:54:36.778Z,54.83
2023-05-03T04:55:39.194Z,54.86
2023-05-03T04:56:41.628Z,55.33
2023-05-03T04:57:48.849Z,57.30
2023-05-03T04:58:55.206Z,54.86
2023-05-03T04:59:58.006Z,56.33
2023-05-03T05:01:01.967Z,57.23
2023-05-03T05:02:05.444Z,56.69
2023-05-03T05:03:08.230Z,54.54
2023-05-03T05:04:11.718Z,55.20
2023-05-03T05:05:17.959Z,54.22
2023-05-03T05:06:21.810Z,54.57
2023-05-03T05:07:24.508Z,54.21
2023-05-03T05:08:26.677Z,54.23
2023-05-03T05:09:31.067Z,56.86
2023-05-03T05:10:40.841Z,54.69
2023-05-03T05:11:44.716Z,54.88
2023-05-03T05:12:47.093Z,55.13
2023-05-03T05:13:49.616Z,54.63
2023-05-03T05:14:53.639Z,55.36
2023-05-03T05:15:56.020Z,55.36
2023-05-03T05:16:59.131Z,54.68
2023-05-03T05:18:02.411Z,54.80
2023-05-03T05:19:05.347Z,55.85
2023-05-03T05:20:11.339Z,56.65
2023-05-03T05:21:14.575Z,55.25
2023-05-03T05:22:20.256Z,56.81
2023-05-03T05:23:24.293Z,55.20
2023-05-03T05:24:26.720Z,54.62
2023-05-03T05:25:29.024Z,53.12
2023-05-03T05:26:32.092Z,54.52
2023-05-03T05:27:35.665Z,54.65
2023-05-03T05:28:38.670Z,52.57
2023-05-03T05:29:41.449Z,51.91
2023-05-03T05:30:43.729Z,52.14
2023-05-03T05:31:46.763Z,52.77
2023-05-03T05:32:49.377Z,53.20
2023-05-03T05:33:51.872Z,52.56
2023-05-03T05:34:57.081Z,54.82
2023-05-03T05:36:01.440Z,53.65
2023-05-03T05:37:05.093Z,53.81
2023-05-03T05:38:08.167Z,52.55
2023-05-03T05:39:11.392Z,52.31
2023-05-03T05:40:15.032Z,52.31
2023-05-03T05:41:19.361Z,50.95
2023-05-03T05:42:22.981Z,52.95
2023-05-03T05:43:25.187Z,53.25
2023-05-03T05:44:27.619Z,53.25
2023-05-03T05:45:30.358Z,51.92
2023-05-03T05:46:34.046Z,52.39
2023-05-03T05:47:36.453Z,49.79
2023-05-03T05:48:41.678Z,51.45
2023-05-03T05:49:44.427Z,50.50
2023-05-03T05:50:49.330Z,51.05
2023-05-03T05:51:51.870Z,50.96
2023-05-03T05:52:55.357Z,50.57
2023-05-03T05:53:58.405Z,51.32
2023-05-03T05:55:00.836Z,49.79
2023-05-03T05:56:03.441Z,50.17
2023-05-03T05:57:07.539Z,48.89
2023-05-03T05:58:12.220Z,48.76
2023-05-03T05:59:16.533Z,47.93
2023-05-03T06:00:20.909Z,49.57
2023-05-03T06:01:23.391Z,49.77
2023-05-03T06:02:27.058Z,49.68
2023-05-03T06:03:33.765Z,48.23
2023-05-03T06:04:38.885Z,48.20
2023-05-03T06:05:42.420Z,48.95
2023-05-03T06:06:46.038Z,49.50
2023-05-03T06:07:50.987Z,47.96
2023-05-03T06:08:53.476Z,47.12
2023-05-03T06:09:56.724Z,46.80
2023-05-03T06:10:59.464Z,48.36
2023-05-03T06:12:04.295Z,48.00
2023-05-03T06:13:09.329Z,48.17
2023-05-03T06:14:11.914Z,46.87
2023-05-03T06:15:16.209Z,47.17
2023-05-03T06:16:20.241Z,47.95
2023-05-03T06:17:23.064Z,45.91
2023-05-03T06:18:25.338Z,45.29
2023-05-03T06:19:27.904Z,46.85
2023-05-03T06:20:30.227Z,47.14
2023-05-03T06:21:34.012Z,47.14
2023-05-03T06:22:36.967Z,47.55
2023-05-03T06:23:39.878Z,46.76
2023-05-03T06:24:43.170Z,45.90
2023-05-03T06:25:47.179Z,46.76
2023-05-03T06:26:49.734Z,47.07
2023-05-03T06:27:53.649Z,45.76
2023-05-03T06:28:59.587Z,45.76
2023-05-03T06:30:03.880Z,44.21
2023-05-03T06:31:07.704Z,45.83
2023-05-03T06:32:10.668Z,44.36
2023-05-03T06:33:14.233Z,46.29
2023-05-03T06:34:21.123Z,45.89
2023-05-03T06:35:24.021Z,43.84
2023-05-03T06:36:27.708Z,43.81
2023-05-03T06:37:30.080Z,45.05
2023-05-03T06:38:32.399Z,45.14
2023-05-03T06:39:35.600Z,44.87
2023-05-03T06:40:38.528Z,43.01
2023-05-03T06:41:42.283Z,41.96
2023-05-03T06:42:45.154Z,44.45
2023-05-03T06:43:53.142Z,42.10
2023-05-03T06:44:56.428Z,42.80
2023-05-03T06:45:59.135Z,42.40
2023-05-03T06:47:01.703Z,41.69
2023-05-03T06:48:04.967Z,42.66
2023-05-03T06:49:07.762Z,41.77
2023-05-03T06:50:10.746Z,41.37
2023-05-03T06:51:14.120Z,42.53
2023-05-03T06:52:16.878Z,42.96
2023-05-03T06:53:19.415Z,43.83
2023-05-03T06:54:23.909Z,41.65
2023-05-03T06:55:27.281Z,40.47
2023-05-03T06:56:29.978Z,44.47
2023-05-03T06:57:32.426Z,41.90
2023-05-03T06:58:34.665Z,44.03
2023-05-03T06:59:36.972Z,43.70
2023-05-03T07:00:40.019Z,43.61
2023-05-03T07:01:42.521Z,42.52
2023-05-03T07:02:44.954Z,43.50
2023-05-03T07:03:47.148Z,41.36
2023-05-03T07:04:50.115Z,41.58
2023-05-03T07:05:53.319Z,40.12
2023-05-03T07:06:57.425Z,42.54
2023-05-03T07:07:59.668Z,40.95
2023-05-03T07:09:02.944Z,42.82
2023-05-03T07:10:06.599Z,40.81
2023-05-03T07:11:09.566Z,40.90
2023-05-03T07:12:12.020Z,40.91
2023-05-03T07:13:15.126Z,40.14
2023-05-03T07:14:17.487Z,39.43
2023-05-03T07:15:20.137Z,39.96
2023-05-03T07:16:24.452Z,40.19
2023-05-03T07:17:26.936Z,39.82
2023-05-03T07:18:29.393Z,39.78
2023-05-03T07:19:32.729Z,40.14
2023-05-03T07:20:35.183Z,40.48
2023-05-03T07:21:39.092Z,37.29
2023-05-03T07:22:42.661Z,39.10
2023-05-03T07:23:44.912Z,39.27
2023-05-03T07:24:47.199Z,37.84
2023-05-03T07:25:49.597Z,37.02
2023-05-03T07:26:53.045Z,38.33
2023-05-03T07:27:55.414Z,38.99
2023-05-03T07:28:57.740Z,38.93
2023-05-03T07:30:00.438Z,38.52
2023-05-03T07:31:05.671Z,37.93
2023-05-03T07:32:08.539Z,38.02
2023-05-03T07:33:11.872Z,38.70
2023-05-03T07:34:14.396Z,38.26
2023-05-03T07:35:17.751Z,38.82
2023-05-03T07:36:20.424Z,38.11
2023-05-03T07:37:22.816Z,35.18
2023-05-03T07:38:25.082Z,36.16
2023-05-03T07:39:28.525Z,36.05
2023-05-03T07:40:33.660Z,34.30
2023-05-03T07:41:36.533Z,34.75
2023-05-03T07:42:39.113Z,33.47
2023-05-03T07:43:41.958Z,32.80
2023-05-03T07:44:44.717Z,35.49
2023-05-03T07:45:47.314Z,31.77
2023-05-03T07:46:49.983Z,34.39
2023-05-03T07:47:52.521Z,32.50
2023-05-03T07:48:54.918Z,33.93
2023-05-03T07:49:57.560Z,35.14
2023-05-03T07:51:00.311Z,36.01
2023-05-03T07:52:02.632Z,34.62
2023-05-03T07:53:05.168Z,33.22
2023-05-03T07:54:07.398Z,35.43
2023-05-03T07:55:10.196Z,34.22
2023-05-03T07:56:12.702Z,35.86
2023-05-03T07:57:18.824Z,35.74
2023-05-03T07:58:28.395Z,33.96
2023-05-03T07:59:25.651Z,32.25
2023-05-03T08:00:28.369Z,33.90
2023-05-03T08:01:31.972Z,35.66
2023-05-03T08:02:35.245Z,33.51
2023-05-03T08:03:38.495Z,33.70
2023-05-03T08:04:41.356Z,33.81
2023-05-03T08:05:43.950Z,33.20
2023-05-03T08:06:47.636Z,33.74
2023-05-03T08:07:50.303Z,32.51
2023-05-03T08:08:52.468Z,34.06
2023-05-03T08:09:59.149Z,34.76
2023-05-03T08:11:02.638Z,34.60
2023-05-03T08:12:10.164Z,33.37
2023-05-03T08:13:21.671Z,33.66
2023-05-03T08:14:24.182Z,33.23
2023-05-03T08:15:27.327Z,34.62
2023-05-03T08:16:30.989Z,31.43
2023-05-03T08:17:42.359Z,30.49
2023-05-03T08:18:46.175Z,32.39
2023-05-03T08:19:49.152Z,32.22
2023-05-03T08:20:51.569Z,32.02
2023-05-03T08:21:55.092Z,29.93
2023-05-03T08:22:58.799Z,30.48
2023-05-03T08:24:01.719Z,30.40
2023-05-03T08:25:05.823Z,30.45
2023-05-03T08:26:10.532Z,28.38
2023-05-03T08:27:12.806Z,28.65
2023-05-03T08:28:15.973Z,26.57
2023-05-03T08:29:18.301Z,30.46
2023-05-03T08:30:22.812Z,31.17
2023-05-03T08:31:25.282Z,30.38
2023-05-03T08:32:29.183Z,31.77
2023-05-03T08:33:31.769Z,31.82
2023-05-03T08:34:33.853Z,33.11
2023-05-03T08:35:37.831Z,32.42
2023-05-03T08:36:40.214Z,29.31
2023-05-03T08:37:43.680Z,32.52
2023-05-03T08:38:45.943Z,31.64
2023-05-03T08:39:48.461Z,32.22
2023-05-03T08:40:53.740Z,32.53
2023-05-03T08:41:56.232Z,32.28
2023-05-03T08:43:01.233Z,33.32
2023-05-03T08:44:05.028Z,31.19
2023-05-03T08:45:09.971Z,27.62
2023-05-03T08:46:14.204Z,30.43
2023-05-03T08:47:17.063Z,28.72
2023-05-03T08:48:20.270Z,27.21
2023-05-03T08:49:25.005Z,30.74
2023-05-03T08:50:27.908Z,27.35
2023-05-03T08:51:31.704Z,29.01
2023-05-03T08:52:34.757Z,30.48
2023-05-03T08:53:37.244Z,29.50
2023-05-03T08:54:39.789Z,30.94
2023-05-03T08:55:42.348Z,30.99
2023-05-03T08:56:46.046Z,32.49
2023-05-03T08:57:48.501Z,32.49
2023-05-03T08:58:50.810Z,29.32
2023-05-03T08:59:56.095Z,30.34
2023-05-03T09:01:07.815Z,29.25
2023-05-03T09:02:11.794Z,30.17
2023-05-03T09:03:14.337Z,31.56
2023-05-03T09:04:17.387Z,31.51
2023-05-03T09:05:25.326Z,30.61
2023-05-03T09:06:28.281Z,31.07
2023-05-03T09:07:30.662Z,28.95
2023-05-03T09:08:36.526Z,31.86
2023-05-03T09:09:40.120Z,32.56
2023-05-03T09:10:43.392Z,32.21
2023-05-03T09:11:45.974Z,29.41
2023-05-03T09:12:48.396Z,32.38
2023-05-03T09:13:52.880Z,31.14
2023-05-03T09:14:55.410Z,32.41
2023-05-03T09:15:58.884Z,30.83
2023-05-03T09:17:17.195Z,31.54
2023-05-03T09:18:20.505Z,29.95
2023-05-03T09:19:23.731Z,28.14
2023-05-03T09:20:37.296Z,30.82
2023-05-03T09:21:42.590Z,28.67
2023-05-03T09:23:59.394Z,29.43
2023-05-03T09:25:01.658Z,31.33
2023-05-03T09:26:04.166Z,30.20
2023-05-03T09:27:12.683Z,28.56
2023-05-03T09:28:16.485Z,28.37
2023-05-03T09:29:33.744Z,28.38
2023-05-03T09:30:36.468Z,29.46
2023-05-03T09:31:42.540Z,29.83
2023-05-03T09:32:48.899Z,31.43
2023-05-03T09:33:52.916Z,31.08
2023-05-03T09:34:58.759Z,32.86
2023-05-03T09:36:02.820Z,29.60
2023-05-03T09:37:06.075Z,29.52
2023-05-03T09:38:10.204Z,28.54
2023-05-03T09:39:19.340Z,29.66
2023-05-03T09:40:21.696Z,31.33
2023-05-03T09:41:29.698Z,31.95
2023-05-03T09:42:31.944Z,29.64
2023-05-03T09:43:37.724Z,31.53
2023-05-03T09:44:41.709Z,31.16
2023-05-03T09:45:44.789Z,32.11
2023-05-03T09:47:06.657Z,31.48
2023-05-03T09:48:09.483Z,30.89
2023-05-03T09:49:11.964Z,30.68
2023-05-03T09:50:15.290Z,32.56
2023-05-03T09:51:18.380Z,30.92
2023-05-03T09:52:23.765Z,30.59
2023-05-03T09:53:27.699Z,30.21
2023-05-03T09:54:30.899Z,31.88
2023-05-03T09:55:36.035Z,29.94
2023-05-03T09:56:39.512Z,30.25
2023-05-03T09:57:45.760Z,29.90
2023-05-03T09:58:48.234Z,30.07
2023-05-03T09:59:51.429Z,30.47
2023-05-03T10:00:55.069Z,30.47
2023-05-03T10:02:00.313Z,30.44
2023-05-03T10:03:06.131Z,31.71
2023-05-03T10:04:10.724Z,30.96
2023-05-03T10:05:14.271Z,32.00
2023-05-03T10:06:27.484Z,31.37
2023-05-03T10:07:32.007Z,31.37
2023-05-03T10:08:42.186Z,30.06
2023-05-03T10:09:46.780Z,30.02
2023-05-03T10:10:53.691Z,29.40
2023-05-03T10:11:58.925Z,31.44
2023-05-03T10:13:03.480Z,30.47
2023-05-03T10:14:10.137Z,30.67
2023-05-03T10:15:15.691Z,30.82
2023-05-03T10:16:21.871Z,30.57
2023-05-03T10:17:46.959Z,30.18
2023-05-03T10:18:39.333Z,30.23
2023-05-03T10:19:51.095Z,30.01
2023-05-03T10:20:57.133Z,30.36
2023-05-03T10:22:12.011Z,30.16
2023-05-03T10:23:14.302Z,30.24
2023-05-03T10:24:18.204Z,30.16
2023-05-03T10:25:20.882Z,30.96
2023-05-03T10:26:25.688Z,30.09
2023-05-03T10:28:59.420Z,30.19
2023-05-03T10:30:02.575Z,29.78
2023-05-03T10:31:05.520Z,29.91
2023-05-03T10:32:31.306Z,29.75
2023-05-03T10:33:36.947Z,29.76
2023-05-03T10:34:39.842Z,30.07
2023-05-03T10:35:44.838Z,29.99
2023-05-03T10:36:52.723Z,30.29
2023-05-03T10:37:57.486Z,30.93
2023-05-03T10:39:03.831Z,29.54
2023-05-03T10:40:11.378Z,30.46
2023-05-03T10:41:14.974Z,32.28
2023-05-03T10:42:17.221Z,29.86
2023-05-03T10:43:35.278Z,29.33
2023-05-03T10:44:53.632Z,29.86
2023-05-03T10:45:57.048Z,31.32
2023-05-03T10:47:11.861Z,29.17
2023-05-03T10:48:20.076Z,30.56
2023-05-03T10:49:24.908Z,29.15
2023-05-03T10:50:27.974Z,29.62
2023-05-03T10:51:34.550Z,29.41
2023-05-03T10:52:43.652Z,29.39
2023-05-03T10:53:45.829Z,29.48
2023-05-03T10:54:50.977Z,29.66
2023-05-03T10:56:11.307Z,29.60
2023-05-03T10:57:13.645Z,29.69
2023-05-03T10:58:16.582Z,29.39
2023-05-03T10:59:20.347Z,30.13
2023-05-03T11:00:32.823Z,29.31
2023-05-03T11:01:36.283Z,29.15
2023-05-03T11:02:42.300Z,29.62
2023-05-03T11:03:51.929Z,31.37
2023-05-03T11:04:57.974Z,31.00
2023-05-03T11:06:00.522Z,30.15
2023-05-03T11:07:03.843Z,29.58
2023-05-03T11:08:18.743Z,30.09
2023-05-03T11:09:23.257Z,29.44
2023-05-03T11:10:25.632Z,29.60
2023-05-03T11:11:28.037Z,30.17
2023-05-03T11:12:30.527Z,29.53
2023-05-03T11:13:33.205Z,29.59
2023-05-03T11:14:35.521Z,29.38
2023-05-03T11:15:38.444Z,29.34
2023-05-03T11:16:43.162Z,29.30
2023-05-03T11:17:46.917Z,29.34
2023-05-03T11:18:50.633Z,29.14
2023-05-03T11:19:53.143Z,28.93
2023-05-03T11:20:55.781Z,28.90
2023-05-03T11:21:58.431Z,29.06
2023-05-03T11:23:01.982Z,28.87
2023-05-03T11:24:05.831Z,30.88
2023-05-03T11:25:10.422Z,30.91
2023-05-03T11:26:13.978Z,29.15
2023-05-03T11:27:19.978Z,29.23
2023-05-03T11:28:22.246Z,29.13
2023-05-03T11:29:25.513Z,29.11
2023-05-03T11:30:29.766Z,29.02
2023-05-03T11:31:32.530Z,29.01
2023-05-03T11:32:36.103Z,29.01
2023-05-03T11:33:39.732Z,29.28
2023-05-03T11:34:42.489Z,29.72
2023-05-03T11:35:45.658Z,29.50
2023-05-03T11:36:48.834Z,29.88
2023-05-03T11:37:51.239Z,29.24
2023-05-03T11:38:54.214Z,29.20
2023-05-03T11:39:56.589Z,29.25
2023-05-03T11:41:00.302Z,29.49
2023-05-03T11:42:05.927Z,29.09
2023-05-03T11:43:09.300Z,28.89
2023-05-03T11:44:17.696Z,29.00
2023-05-03T11:45:16.066Z,29.08
2023-05-03T11:46:25.911Z,30.08
2023-05-03T11:47:28.316Z,31.22
2023-05-03T11:48:33.614Z,29.64
2023-05-03T11:49:36.265Z,30.12
2023-05-03T11:50:47.559Z,28.90
2023-05-03T11:51:54.557Z,29.26
2023-05-03T11:52:56.932Z,29.55
2023-05-03T11:54:20.571Z,29.67
2023-05-03T11:55:10.250Z,30.46
2023-05-03T11:56:20.411Z,30.85
2023-05-03T11:57:24.878Z,29.50
2023-05-03T11:58:28.342Z,29.56
2023-05-03T11:59:35.360Z,30.07
2023-05-03T12:00:37.918Z,30.40
2023-05-03T12:01:43.171Z,29.25
2023-05-03T12:02:48.552Z,28.89
2023-05-03T12:03:57.319Z,29.53
2023-05-03T12:05:01.964Z,30.53
2023-05-03T12:06:06.552Z,29.30
2023-05-03T12:07:11.515Z,30.12
2023-05-03T12:08:17.951Z,30.51
2023-05-03T12:09:24.522Z,30.06
2023-05-03T12:10:33.884Z,29.89
2023-05-03T12:11:43.895Z,30.19
2023-05-03T12:12:57.758Z,29.71
2023-05-03T12:14:02.858Z,31.60
2023-05-03T12:15:08.105Z,30.20
2023-05-03T12:16:14.633Z,30.80
2023-05-03T12:17:21.310Z,32.49
2023-05-03T12:18:23.994Z,31.01
2023-05-03T12:19:32.882Z,29.38
2023-05-03T12:21:53.280Z,30.81
2023-05-03T12:22:57.827Z,30.99
2023-05-03T12:24:01.223Z,29.23
2023-05-03T12:25:04.795Z,28.65
2023-05-03T12:26:10.081Z,28.97
2023-05-03T12:27:13.895Z,28.38
2023-05-03T12:28:20.946Z,29.10
2023-05-03T12:29:24.579Z,29.10
2023-05-03T12:30:28.936Z,28.78
2023-05-03T12:31:34.497Z,28.15
2023-05-03T12:32:39.064Z,28.82
2023-05-03T12:33:43.622Z,28.34
2023-05-03T12:34:46.941Z,28.38
2023-05-03T12:35:52.785Z,27.57
2023-05-03T12:36:56.569Z,28.09
2023-05-03T12:38:03.287Z,27.87
2023-05-03T12:39:10.112Z,27.94
2023-05-03T12:40:32.405Z,28.39
2023-05-03T12:42:22.774Z,28.85
2023-05-03T12:43:25.603Z,27.71
2023-05-03T12:44:29.218Z,28.57
2023-05-03T12:45:34.291Z,29.77
2023-05-03T12:46:36.892Z,29.77
2023-05-03T12:47:44.133Z,28.52
2023-05-03T12:49:51.960Z,29.54
2023-05-03T12:50:57.635Z,28.20
2023-05-03T12:52:29.495Z,28.51
2023-05-03T12:53:09.323Z,27.78
2023-05-03T12:54:11.665Z,28.44
2023-05-03T12:55:18.173Z,29.93
2023-05-03T12:56:23.801Z,29.52
2023-05-03T12:57:25.032Z,29.80
2023-05-03T12:59:41.091Z,27.62
2023-05-03T13:00:37.694Z,28.10
2023-05-03T13:04:05.210Z,27.75
2023-05-03T13:04:58.734Z,27.31
2023-05-03T13:06:01.097Z,27.66
2023-05-03T13:08:10.357Z,27.36
2023-05-03T13:09:20.846Z,27.75
2023-05-03T13:11:22.022Z,29.02
2023-05-03T13:12:26.088Z,28.75
2023-05-03T13:13:28.469Z,27.83
2023-05-03T13:14:31.175Z,27.32
2023-05-03T13:15:37.065Z,27.36
2023-05-03T13:16:40.877Z,27.96
2023-05-03T13:17:45.306Z,27.77
2023-05-03T13:18:48.368Z,26.97
2023-05-03T13:19:51.752Z,27.38
2023-05-03T13:20:54.149Z,28.87
2023-05-03T13:21:56.479Z,28.83
2023-05-03T13:22:59.125Z,27.41
2023-05-03T13:24:02.213Z,27.34
2023-05-03T13:25:07.210Z,26.32
2023-05-03T13:26:09.911Z,27.66
2023-05-03T13:27:12.864Z,27.83
2023-05-03T13:28:17.902Z,28.40
2023-05-03T13:29:22.873Z,27.62
2023-05-03T13:30:25.320Z,26.93
2023-05-03T13:31:29.526Z,26.77
2023-05-03T13:32:32.714Z,27.17
2023-05-03T13:33:38.012Z,26.02
2023-05-03T13:34:41.306Z,27.23
2023-05-03T13:35:45.866Z,27.74
2023-05-03T13:36:49.003Z,27.80
2023-05-03T13:37:52.189Z,28.13
2023-05-03T13:38:55.166Z,27.88
2023-05-03T13:39:58.980Z,26.96
2023-05-03T13:41:07.902Z,28.19
2023-05-03T13:42:10.665Z,27.38
2023-05-03T13:43:12.774Z,27.37
2023-05-03T13:44:16.261Z,27.00
2023-05-03T13:45:20.736Z,27.75
2023-05-03T13:46:23.674Z,27.75
2023-05-03T13:47:29.139Z,28.83
2023-05-03T13:48:32.705Z,28.49
2023-05-03T13:49:35.525Z,27.35
2023-05-03T13:50:39.496Z,28.41
2023-05-03T13:51:42.180Z,27.46
2023-05-03T13:52:44.793Z,26.79
2023-05-03T13:53:48.362Z,28.05
2023-05-03T13:54:52.673Z,28.55
2023-05-03T13:55:55.841Z,27.84
2023-05-03T13:56:59.470Z,29.05
2023-05-03T13:58:02.894Z,29.20
2023-05-03T13:59:08.079Z,29.48
2023-05-03T14:00:11.718Z,29.37